createdAt,value
2017-12-28T00:00:29.857Z,8.65
2017-12-28T00:03:05.533Z,9.07
2017-12-28T00:05:40.085Z,9.05
2017-12-28T00:08:15.340Z,9.20
2017-12-28T00:10:49.835Z,9.30
2017-12-28T00:13:24.213Z,8.38
2017-12-28T00:15:59.393Z,9.65
2017-12-28T00:18:33.735Z,8.55
2017-12-28T00:21:08.142Z,9.60
2017-12-28T00:23:42.662Z,10.38
2017-12-28T00:26:17.953Z,10.13
2017-12-28T00:28:52.373Z,10.73
2017-12-28T00:31:27.578Z,9.55
2017-12-28T00:34:02.045Z,9.05
2017-12-28T00:36:36.478Z,8.77
2017-12-28T00:39:10.904Z,9.50
2017-12-28T00:41:45.363Z,8.70
2017-12-28T00:44:20.597Z,11.57
2017-12-28T00:46:55.148Z,9.95
2017-12-28T00:49:29.699Z,10.23
2017-12-28T00:52:04.170Z,9.52
2017-12-28T00:54:38.641Z,9.60
2017-12-28T00:57:13.086Z,10.15
2017-12-28T00:59:47.433Z,8.65
2017-12-28T01:02:21.876Z,8.32
2017-12-28T01:04:56.384Z,9.02
2017-12-28T01:07:30.891Z,9.90
2017-12-28T01:10:05.372Z,7.15
2017-12-28T01:12:39.900Z,10.13
2017-12-28T01:15:14.394Z,9.50
2017-12-28T01:17:49.497Z,10.02
2017-12-28T01:20:23.833Z,9.10
2017-12-28T01:22:58.324Z,9.65
2017-12-28T01:25:32.771Z,10.50
2017-12-28T01:28:07.256Z,9.73
2017-12-28T01:30:41.630Z,11.32
2017-12-28T01:33:16.241Z,9.13
2017-12-28T01:35:50.719Z,8.77
2017-12-28T01:38:25.236Z,11.50
2017-12-28T01:40:59.680Z,9.95
2017-12-28T01:43:34.222Z,11.20
2017-12-28T01:46:08.714Z,10.80
2017-12-28T01:48:43.012Z,8.90
2017-12-28T01:51:17.501Z,10.10
2017-12-28T01:53:51.981Z,10.27
2017-12-28T01:56:27.196Z,12.15
2017-12-28T01:59:01.578Z,11.75
2017-12-28T02:01:36.127Z,11.85
2017-12-28T02:04:10.433Z,9.65
2017-12-28T02:06:44.956Z,10.60
2017-12-28T02:09:19.275Z,10.15
2017-12-28T02:11:54.461Z,10.88
2017-12-28T02:14:28.778Z,10.93
2017-12-28T02:17:03.281Z,12.70
2017-12-28T02:19:38.508Z,11.93
2017-12-28T02:22:12.906Z,10.73
2017-12-28T02:24:47.427Z,9.98
2017-12-28T02:27:21.794Z,11.20
2017-12-28T02:29:56.312Z,12.32
2017-12-28T02:32:30.813Z,10.73
2017-12-28T02:35:05.373Z,11.32
2017-12-28T02:37:40.582Z,11.32
2017-12-28T02:40:14.974Z,12.57
2017-12-28T02:42:49.396Z,12.20
2017-12-28T02:45:23.703Z,10.23
2017-12-28T02:47:58.871Z,11.82
2017-12-28T02:50:33.476Z,11.05
2017-12-28T02:53:08.734Z,11.80
2017-12-28T02:55:43.248Z,11.38
2017-12-28T02:58:17.762Z,11.18
2017-12-28T03:00:52.847Z,11.65
2017-12-28T03:03:27.407Z,11.43
2017-12-28T03:06:01.975Z,11.07
2017-12-28T03:08:36.353Z,11.85
2017-12-28T03:11:11.490Z,10.77
2017-12-28T03:13:45.942Z,13.95
2017-12-28T03:16:20.277Z,10.60
2017-12-28T03:18:54.719Z,12.23
2017-12-28T03:21:29.076Z,11.38
2017-12-28T03:24:03.528Z,13.20
2017-12-28T03:26:37.907Z,11.57
2017-12-28T03:29:12.426Z,11.90
2017-12-28T03:31:47.052Z,12.65
2017-12-28T03:34:21.576Z,11.10
2017-12-28T03:36:56.796Z,13.02
2017-12-28T03:39:31.343Z,9.43
2017-12-28T03:42:05.661Z,11.75
2017-12-28T03:44:40.108Z,13.73
2017-12-28T03:47:14.649Z,12.63
2017-12-28T03:49:49.261Z,12.77
2017-12-28T03:52:23.607Z,13.80
2017-12-28T03:54:58.026Z,11.98
2017-12-28T03:57:32.497Z,14.35
2017-12-28T04:00:06.994Z,14.80
2017-12-28T04:02:41.478Z,13.05
2017-12-28T04:05:15.949Z,15.65
2017-12-28T04:07:50.467Z,12.75
2017-12-28T04:10:24.907Z,14.90
2017-12-28T04:12:59.357Z,14.87
2017-12-28T04:15:33.732Z,13.70
2017-12-28T04:18:08.287Z,13.62
2017-12-28T04:20:42.761Z,13.38
2017-12-28T04:23:18.010Z,15.48
2017-12-28T04:25:52.570Z,13.98
2017-12-28T04:28:27.052Z,14.77
2017-12-28T04:31:01.485Z,13.62
2017-12-28T04:33:35.974Z,14.68
2017-12-28T04:36:10.431Z,15.13
2017-12-28T04:38:44.919Z,15.63
2017-12-28T04:41:20.265Z,11.48
2017-12-28T04:43:54.777Z,14.93
2017-12-28T04:46:29.202Z,16.67
2017-12-28T04:49:03.737Z,14.25
2017-12-28T04:51:38.181Z,17.77
2017-12-28T04:54:13.299Z,10.38
2017-12-28T04:56:47.821Z,15.38
2017-12-28T04:59:22.192Z,10.60
2017-12-28T05:01:56.468Z,16.83
2017-12-28T05:04:31.617Z,10.38
2017-12-28T05:07:06.077Z,16.20
2017-12-28T05:09:40.503Z,14.63
2017-12-28T05:12:15.073Z,15.10
2017-12-28T05:14:49.551Z,16.12
2017-12-28T05:17:24.048Z,17.10
2017-12-28T05:19:58.541Z,18.87
2017-12-28T05:22:32.903Z,15.70
2017-12-28T05:25:07.351Z,7.57
2017-12-28T05:27:41.875Z,10.80
2017-12-28T05:30:16.259Z,6.05
2017-12-28T05:32:50.773Z,9.02
2017-12-28T05:35:25.235Z,6.15
2017-12-28T05:37:59.760Z,5.22
2017-12-28T05:40:34.276Z,5.10
2017-12-28T05:43:08.705Z,3.50
2017-12-28T05:45:43.968Z,2.90
2017-12-28T05:48:18.466Z,3.80
2017-12-28T05:50:53.608Z,2.45
2017-12-28T05:53:28.092Z,1.73
2017-12-28T05:56:02.444Z,0.82
2017-12-28T05:58:37.658Z,2.33
2017-12-28T06:01:12.131Z,1.85
2017-12-28T06:03:47.348Z,0.80
2017-12-28T06:06:21.826Z,0.82
2017-12-28T06:08:57.155Z,1.62
2017-12-28T06:11:32.359Z,1.42
2017-12-28T06:14:06.860Z,1.50
2017-12-28T06:16:41.350Z,1.20
2017-12-28T06:19:15.853Z,1.00
2017-12-28T06:21:50.212Z,1.80
2017-12-28T06:24:24.674Z,1.60
2017-12-28T06:26:59.143Z,1.20
2017-12-28T06:29:33.685Z,1.55
2017-12-28T06:32:08.005Z,1.30
2017-12-28T06:34:42.341Z,1.37
2017-12-28T06:37:17.533Z,1.10
2017-12-28T06:39:52.632Z,1.45
2017-12-28T06:42:27.115Z,1.05
2017-12-28T06:45:01.620Z,1.80
2017-12-28T06:47:36.105Z,1.40
2017-12-28T06:50:10.693Z,1.50
2017-12-28T06:52:45.887Z,1.10
2017-12-28T06:55:20.245Z,1.23
2017-12-28T06:57:54.761Z,1.62
2017-12-28T07:00:29.146Z,1.30
2017-12-28T07:03:03.621Z,1.17
2017-12-28T07:05:38.111Z,1.20
2017-12-28T07:08:12.518Z,0.80
2017-12-28T07:10:47.047Z,1.50
2017-12-28T07:13:21.564Z,1.10
2017-12-28T07:15:55.990Z,0.80
2017-12-28T07:18:30.552Z,0.80
2017-12-28T07:21:05.053Z,0.75
2017-12-28T07:23:39.468Z,1.40
2017-12-28T07:26:13.948Z,1.10
2017-12-28T07:28:48.400Z,1.70
2017-12-28T07:31:22.789Z,1.10
2017-12-28T07:33:57.276Z,1.40
2017-12-28T07:36:32.494Z,1.50
2017-12-28T07:39:06.977Z,2.22
2017-12-28T07:41:41.297Z,1.55
2017-12-28T07:44:15.778Z,1.40
2017-12-28T07:46:50.274Z,1.00
2017-12-28T07:49:24.588Z,1.37
2017-12-28T07:51:58.989Z,1.05
2017-12-28T07:54:33.364Z,1.30
2017-12-28T07:57:07.841Z,1.15
2017-12-28T07:59:42.362Z,1.52
2017-12-28T08:02:16.790Z,1.20
2017-12-28T08:04:51.175Z,1.60
2017-12-28T08:07:25.521Z,1.12
2017-12-28T08:09:59.846Z,1.48
2017-12-28T08:12:34.350Z,1.73
2017-12-28T08:15:08.822Z,0.90
2017-12-28T08:17:43.196Z,1.48
2017-12-28T08:20:17.714Z,1.90
2017-12-28T08:22:52.283Z,3.15
2017-12-28T08:25:26.745Z,1.15
2017-12-28T08:28:01.302Z,0.95
2017-12-28T08:30:35.825Z,1.55
2017-12-28T08:33:10.935Z,1.65
2017-12-28T08:35:45.321Z,1.80
2017-12-28T08:38:19.877Z,2.15
2017-12-28T08:40:54.404Z,2.70
2017-12-28T08:43:28.904Z,2.37
2017-12-28T08:46:04.151Z,2.87
2017-12-28T08:48:38.515Z,2.75
2017-12-28T08:51:12.908Z,1.83
2017-12-28T08:53:47.367Z,3.60
2017-12-28T08:56:22.655Z,2.72
2017-12-28T08:58:57.153Z,3.60
2017-12-28T09:01:31.497Z,2.60
2017-12-28T09:04:05.979Z,2.25
2017-12-28T09:06:41.153Z,2.30
2017-12-28T09:09:15.543Z,2.30
2017-12-28T09:11:50.785Z,1.77
2017-12-28T09:14:25.202Z,3.12
2017-12-28T09:16:59.648Z,2.08
2017-12-28T09:19:34.762Z,1.85
2017-12-28T09:22:09.286Z,1.60
2017-12-28T09:24:44.417Z,1.90
2017-12-28T09:27:18.768Z,2.22
2017-12-28T09:29:55.068Z,1.60
2017-12-28T09:32:30.028Z,1.50
2017-12-28T09:35:04.391Z,2.12
2017-12-28T09:37:38.969Z,1.33
2017-12-28T09:40:13.457Z,2.50
2017-12-28T09:42:47.936Z,1.70
2017-12-28T09:45:22.343Z,1.40
2017-12-28T09:47:56.840Z,1.62
2017-12-28T09:50:31.136Z,2.37
2017-12-28T09:53:05.508Z,1.55
2017-12-28T09:55:40.015Z,1.20
2017-12-28T09:58:15.171Z,1.70
2017-12-28T10:00:49.558Z,1.20
2017-12-28T10:03:24.000Z,1.40
2017-12-28T10:05:59.126Z,1.58
2017-12-28T10:08:33.480Z,1.20
2017-12-28T10:11:07.881Z,2.15
2017-12-28T10:13:43.096Z,1.90
2017-12-28T10:16:17.600Z,2.70
2017-12-28T10:18:51.911Z,2.67
2017-12-28T10:21:26.326Z,1.58
2017-12-28T10:24:00.756Z,2.35
2017-12-28T10:26:35.129Z,2.15
2017-12-28T10:29:09.582Z,2.40
2017-12-28T10:31:44.041Z,1.40
2017-12-28T10:34:18.470Z,1.30
2017-12-28T10:36:52.968Z,1.00
2017-12-28T10:39:27.542Z,1.48
2017-12-28T10:42:01.922Z,1.98
2017-12-28T10:44:36.399Z,2.37
2017-12-28T10:47:10.927Z,2.62
2017-12-28T10:49:45.414Z,2.17
2017-12-28T10:52:21.144Z,1.83
2017-12-28T10:54:55.618Z,1.50
2017-12-28T10:57:29.931Z,2.03
2017-12-28T11:00:04.443Z,1.37
2017-12-28T11:02:39.607Z,1.70
2017-12-28T11:05:13.958Z,1.27
2017-12-28T11:07:48.313Z,2.20
2017-12-28T11:10:22.796Z,1.77
2017-12-28T11:12:57.153Z,2.10
2017-12-28T11:15:31.649Z,1.80
2017-12-28T11:18:06.874Z,1.75
2017-12-28T11:20:41.288Z,2.12
2017-12-28T11:23:15.761Z,1.80
2017-12-28T11:25:50.075Z,2.55
2017-12-28T11:28:24.634Z,2.45
2017-12-28T11:30:58.986Z,1.80
2017-12-28T11:33:33.450Z,1.77
2017-12-28T11:36:07.774Z,2.47
2017-12-28T11:38:42.333Z,2.95
2017-12-28T11:41:16.844Z,1.90
2017-12-28T11:43:51.283Z,1.75
2017-12-28T11:46:25.692Z,1.73
2017-12-28T11:49:00.159Z,1.27
2017-12-28T11:51:40.201Z,2.42
2017-12-28T11:54:14.549Z,1.48
2017-12-28T11:56:48.887Z,1.90
2017-12-28T11:59:23.231Z,1.98
2017-12-28T12:02:15.009Z,1.30
2017-12-28T12:04:50.175Z,2.85
2017-12-28T12:07:30.382Z,1.85
2017-12-28T12:10:10.410Z,2.45
2017-12-28T12:12:44.746Z,2.78
2017-12-28T12:15:19.222Z,2.60
2017-12-28T12:17:53.688Z,0.93
2017-12-28T12:20:28.169Z,2.35
2017-12-28T12:23:03.276Z,2.15
2017-12-28T12:25:37.708Z,1.40
2017-12-28T12:28:12.131Z,0.85
2017-12-28T12:30:46.665Z,1.60
2017-12-28T12:33:21.080Z,0.75
2017-12-28T12:35:55.490Z,0.57
2017-12-28T12:38:29.954Z,2.45
2017-12-28T12:41:04.434Z,1.42
2017-12-28T12:43:38.985Z,2.20
2017-12-28T12:46:14.251Z,1.42
2017-12-28T12:48:48.586Z,2.10
2017-12-28T12:51:22.953Z,1.20
2017-12-28T12:53:57.479Z,1.37
2017-12-28T12:56:32.021Z,1.25
2017-12-28T12:59:06.478Z,6.62
2017-12-28T13:01:40.927Z,1.17
2017-12-28T13:04:16.215Z,3.05
2017-12-28T13:06:50.646Z,1.50
2017-12-28T13:09:24.955Z,1.12
2017-12-28T13:11:59.365Z,1.20
2017-12-28T13:14:33.678Z,1.52
2017-12-28T13:17:08.152Z,1.70
2017-12-28T13:19:42.693Z,1.95
2017-12-28T13:22:17.132Z,2.40
2017-12-28T13:24:51.577Z,2.35
2017-12-28T13:27:26.132Z,2.35
2017-12-28T13:30:00.449Z,2.20
2017-12-28T13:32:34.871Z,1.98
2017-12-28T13:35:09.309Z,1.65
2017-12-28T13:37:43.760Z,1.27
2017-12-28T13:40:18.212Z,1.60
2017-12-28T13:42:52.530Z,1.70
2017-12-28T13:45:27.070Z,0.80
2017-12-28T13:48:01.385Z,1.00
2017-12-28T13:50:35.820Z,1.70
2017-12-28T13:53:10.247Z,1.95
2017-12-28T13:55:44.519Z,1.77
2017-12-28T13:58:18.815Z,0.65
2017-12-28T14:00:53.261Z,1.27
2017-12-28T14:03:27.711Z,1.10
2017-12-28T14:06:02.186Z,0.98
2017-12-28T14:08:36.485Z,1.20
2017-12-28T14:11:10.896Z,2.90
2017-12-28T14:13:45.204Z,1.95
2017-12-28T14:16:19.487Z,1.12
2017-12-28T14:18:53.833Z,1.15
2017-12-28T14:21:28.356Z,1.30
2017-12-28T14:24:02.824Z,2.37
2017-12-28T14:26:37.289Z,1.10
2017-12-28T14:29:11.732Z,0.68
2017-12-28T14:31:46.200Z,1.85
2017-12-28T14:37:24.165Z,1.87
2017-12-28T14:39:58.452Z,2.03
2017-12-28T14:42:32.903Z,1.00
2017-12-28T14:45:07.326Z,1.30
2017-12-28T14:47:41.636Z,0.65
2017-12-28T14:50:16.058Z,0.85
2017-12-28T14:52:50.534Z,1.35
2017-12-28T14:55:24.994Z,0.98
2017-12-28T14:57:59.410Z,0.70
2017-12-28T15:00:34.636Z,1.65
2017-12-28T15:03:09.139Z,1.00
2017-12-28T15:05:43.555Z,1.40
2017-12-28T15:08:17.897Z,0.93
2017-12-28T15:10:52.252Z,0.73
2017-12-28T15:13:26.608Z,1.20
2017-12-28T15:16:01.026Z,2.58
2017-12-28T15:18:35.372Z,2.15
2017-12-28T15:21:09.825Z,1.50
2017-12-28T15:23:44.389Z,1.02
2017-12-28T15:26:18.709Z,1.67
2017-12-28T15:28:53.036Z,1.37
2017-12-28T15:31:28.399Z,0.60
2017-12-28T15:34:02.896Z,0.93
2017-12-28T15:36:37.397Z,2.25
2017-12-28T15:39:11.731Z,0.60
2017-12-28T15:41:46.145Z,1.70
2017-12-28T15:44:20.458Z,2.05
2017-12-28T15:46:54.898Z,1.87
2017-12-28T15:49:31.921Z,2.30
2017-12-28T15:52:06.405Z,1.27
2017-12-28T15:54:40.829Z,3.20
2017-12-28T15:57:16.011Z,1.45
2017-12-28T15:59:50.456Z,2.20
2017-12-28T16:02:24.892Z,0.60
2017-12-28T16:04:59.313Z,2.03
2017-12-28T16:07:33.862Z,2.25
2017-12-28T16:10:08.144Z,1.45
2017-12-28T16:12:42.602Z,1.42
2017-12-28T16:15:16.910Z,1.50
2017-12-28T16:17:51.315Z,1.33
2017-12-28T16:20:25.716Z,1.45
2017-12-28T16:23:00.163Z,2.30
2017-12-28T16:25:34.557Z,1.55
2017-12-28T16:28:09.779Z,2.53
2017-12-28T16:30:44.071Z,1.42
2017-12-28T16:33:18.519Z,1.52
2017-12-28T16:35:53.802Z,2.00
2017-12-28T16:38:28.307Z,1.62
2017-12-28T16:41:02.758Z,3.05
2017-12-28T16:43:37.224Z,1.23
2017-12-28T16:46:11.687Z,2.92
2017-12-28T16:48:46.053Z,2.78
2017-12-28T16:51:20.646Z,1.20
2017-12-28T16:53:54.999Z,2.67
2017-12-28T16:56:29.367Z,3.10
2017-12-28T16:59:03.810Z,2.80
2017-12-28T17:01:38.241Z,4.18
2017-12-28T17:04:13.496Z,2.42
2017-12-28T17:06:48.002Z,3.03
2017-12-28T17:09:22.594Z,2.05
2017-12-28T17:11:57.083Z,4.22
2017-12-28T17:14:31.495Z,1.52
2017-12-28T17:17:05.864Z,2.58
2017-12-28T17:19:40.911Z,3.00
2017-12-28T17:22:15.410Z,3.33
2017-12-28T17:24:49.832Z,5.50
2017-12-28T17:27:24.205Z,3.95
2017-12-28T17:29:58.627Z,2.75
2017-12-28T17:32:33.750Z,1.02
2017-12-28T17:35:08.280Z,1.23
2017-12-28T17:37:42.818Z,4.85
2017-12-28T17:40:17.105Z,3.80
2017-12-28T17:42:52.276Z,1.75
2017-12-28T17:45:26.588Z,3.92
2017-12-28T17:48:00.897Z,1.33
2017-12-28T17:50:36.023Z,1.77
2017-12-28T17:53:10.456Z,3.65
2017-12-28T17:55:44.756Z,3.12
2017-12-28T17:58:19.871Z,2.47
2017-12-28T18:00:54.197Z,2.65
2017-12-28T18:03:28.695Z,2.10
2017-12-28T18:06:03.835Z,3.75
2017-12-28T18:08:38.283Z,3.15
2017-12-28T18:11:12.607Z,4.72
2017-12-28T18:13:47.117Z,2.60
2017-12-28T18:16:21.622Z,3.05
2017-12-28T18:18:56.199Z,3.97
2017-12-28T18:21:30.673Z,3.00
2017-12-28T18:24:05.077Z,5.47
2017-12-28T18:26:39.531Z,2.67
2017-12-28T18:29:13.870Z,4.57
2017-12-28T18:31:48.354Z,3.92
2017-12-28T18:34:22.786Z,3.58
2017-12-28T18:36:57.210Z,3.40
2017-12-28T18:39:31.612Z,3.03
2017-12-28T18:42:06.004Z,2.95
2017-12-28T18:44:40.543Z,2.30
2017-12-28T18:47:15.014Z,1.65
2017-12-28T18:49:49.523Z,4.65
2017-12-28T18:52:24.029Z,2.75
2017-12-28T18:54:58.342Z,3.85
2017-12-28T18:57:32.882Z,6.10
2017-12-28T19:00:07.368Z,4.30
2017-12-28T19:02:41.850Z,5.18
2017-12-28T19:05:16.240Z,4.68
2017-12-28T19:07:50.769Z,5.57
2017-12-28T19:10:25.323Z,2.62
2017-12-28T19:12:59.719Z,2.75
2017-12-28T19:15:34.973Z,3.85
2017-12-28T19:18:09.363Z,4.12
2017-12-28T19:20:43.774Z,2.95
2017-12-28T19:23:18.204Z,2.35
2017-12-28T19:25:52.757Z,3.25
2017-12-28T19:28:27.954Z,2.35
2017-12-28T19:31:02.573Z,4.87
2017-12-28T19:33:37.138Z,3.45
2017-12-28T19:36:11.763Z,2.92
2017-12-28T19:38:46.258Z,4.93
2017-12-28T19:41:20.672Z,2.25
2017-12-28T19:43:55.818Z,1.85
2017-12-28T19:46:30.303Z,1.92
2017-12-28T19:49:05.534Z,2.70
2017-12-28T19:51:39.967Z,1.62
2017-12-28T19:54:14.289Z,2.92
2017-12-28T19:56:49.514Z,2.37
2017-12-28T19:59:24.692Z,2.78
2017-12-28T20:01:59.113Z,2.10
2017-12-28T20:04:33.544Z,1.73
2017-12-28T20:07:08.681Z,2.47
2017-12-28T20:09:43.770Z,2.20
2017-12-28T20:12:18.242Z,2.62
2017-12-28T20:14:52.725Z,3.12
2017-12-28T20:17:27.200Z,2.30
2017-12-28T20:20:01.751Z,3.30
2017-12-28T20:22:36.222Z,1.55
2017-12-28T20:25:10.745Z,1.80
2017-12-28T20:27:45.229Z,0.95
2017-12-28T20:30:19.705Z,2.55
2017-12-28T20:32:54.961Z,4.25
2017-12-28T20:35:29.440Z,1.60
2017-12-28T20:38:03.876Z,1.58
2017-12-28T20:40:38.364Z,1.10
2017-12-28T20:43:12.858Z,1.75
2017-12-28T20:45:47.280Z,1.80
2017-12-28T20:48:22.454Z,1.95
2017-12-28T20:50:56.985Z,2.17
2017-12-28T20:53:31.330Z,1.62
2017-12-28T20:56:05.775Z,0.65
2017-12-28T20:58:41.006Z,1.75
2017-12-28T21:01:15.953Z,2.75
2017-12-28T21:03:50.651Z,2.90
2017-12-28T21:06:25.753Z,2.65
2017-12-28T21:09:00.092Z,2.60
2017-12-28T21:11:34.494Z,2.83
2017-12-28T21:14:09.134Z,4.57
2017-12-28T21:16:43.640Z,1.62
2017-12-28T21:19:18.839Z,2.05
2017-12-28T21:21:54.846Z,1.73
2017-12-28T21:24:29.326Z,1.80
2017-12-28T21:27:03.839Z,1.08
2017-12-28T21:29:38.278Z,2.58
2017-12-28T21:32:13.398Z,1.50
2017-12-28T21:34:47.825Z,2.87
2017-12-28T21:37:22.167Z,2.40
2017-12-28T21:39:56.701Z,2.20
2017-12-28T21:42:31.072Z,1.55
2017-12-28T21:45:05.570Z,1.87
2017-12-28T21:47:40.059Z,1.12
2017-12-28T21:50:14.543Z,1.87
2017-12-28T21:52:48.948Z,1.00
2017-12-28T21:55:23.553Z,1.20
2017-12-28T21:57:57.943Z,1.73
2017-12-28T22:00:32.543Z,2.10
2017-12-28T22:03:06.912Z,1.12
2017-12-28T22:05:41.308Z,1.12
2017-12-28T22:08:15.736Z,1.92
2017-12-28T22:10:50.195Z,1.60
2017-12-28T22:13:24.575Z,2.15
2017-12-28T22:15:58.931Z,1.00
2017-12-28T22:18:34.181Z,2.80
2017-12-28T22:21:08.682Z,2.55
2017-12-28T22:23:43.922Z,2.20
2017-12-28T22:26:18.363Z,2.15
2017-12-28T22:28:52.904Z,1.60
2017-12-28T22:31:27.421Z,2.28
2017-12-28T22:34:02.669Z,3.20
2017-12-28T22:36:37.026Z,2.15
2017-12-28T22:39:11.577Z,2.60
2017-12-28T22:41:46.100Z,2.15
2017-12-28T22:44:20.755Z,2.62
2017-12-28T22:46:55.278Z,1.48
2017-12-28T22:49:29.709Z,1.30
2017-12-28T22:52:04.084Z,1.92
2017-12-28T22:54:38.617Z,3.00
2017-12-28T22:57:13.881Z,1.60
2017-12-28T22:59:48.244Z,2.92
2017-12-28T23:02:22.593Z,3.75
2017-12-28T23:04:57.096Z,4.03
2017-12-28T23:07:32.486Z,4.05
2017-12-28T23:10:07.012Z,2.05
2017-12-28T23:12:41.366Z,2.08
2017-12-28T23:15:15.835Z,3.55
2017-12-28T23:17:50.366Z,2.67
2017-12-28T23:20:24.707Z,2.35
2017-12-28T23:22:59.189Z,2.28
2017-12-28T23:25:33.680Z,3.05
2017-12-28T23:28:08.113Z,2.00
2017-12-28T23:30:42.685Z,2.35
2017-12-28T23:33:17.136Z,3.25
2017-12-28T23:35:52.467Z,1.00
2017-12-28T23:38:26.932Z,1.73
2017-12-28T23:41:01.358Z,2.10
2017-12-28T23:43:36.568Z,1.67
2017-12-28T23:46:11.064Z,1.62
2017-12-28T23:48:45.370Z,3.08
2017-12-28T23:51:19.928Z,1.02
2017-12-28T23:53:55.545Z,1.17
2017-12-28T23:56:29.989Z,1.20
2017-12-28T23:59:05.245Z,1.10
